createdAt,value
2023-03-24T00:00:15.449Z,56.71
2023-03-24T00:02:54.972Z,56.89
2023-03-24T00:05:33.827Z,56.91
2023-03-24T00:08:06.917Z,56.69
2023-03-24T00:11:22.753Z,56.21
2023-03-24T00:14:04.098Z,56.48
2023-03-24T00:20:20.182Z,56.54
2023-03-24T00:23:06.795Z,56.99
2023-03-24T00:25:57.509Z,57.13
2023-03-24T00:28:57.505Z,57.14
2023-03-24T00:31:40.521Z,57.20
2023-03-24T00:34:19.055Z,57.40
2023-03-24T00:37:15.311Z,57.23
2023-03-24T00:40:18.088Z,57.60
2023-03-24T00:43:02.937Z,57.83
2023-03-24T00:46:17.155Z,58.23
2023-03-24T00:49:06.710Z,58.53
2023-03-24T00:52:16.120Z,58.53
2023-03-24T00:54:58.923Z,58.49
2023-03-24T01:00:28.090Z,58.99
2023-03-24T01:03:08.081Z,58.86
2023-03-24T01:05:58.360Z,59.46
2023-03-24T01:08:55.159Z,59.29
2023-03-24T01:12:06.393Z,59.23
2023-03-24T01:20:34.028Z,59.43
2023-03-24T01:23:11.301Z,59.65
2023-03-24T01:26:30.378Z,59.48
2023-03-24T01:29:10.626Z,59.25
2023-03-24T01:32:25.086Z,59.39
2023-03-24T01:35:07.994Z,59.63
2023-03-24T01:38:02.014Z,59.36
2023-03-24T01:41:03.318Z,59.58
2023-03-24T01:46:57.886Z,59.52
2023-03-24T01:50:02.104Z,59.63
2023-03-24T01:52:59.165Z,59.33
2023-03-24T01:56:17.452Z,59.30
2023-03-24T01:59:15.171Z,59.24
2023-03-24T02:02:17.808Z,59.49
2023-03-24T02:05:14.125Z,59.30
2023-03-24T02:08:15.849Z,59.80
2023-03-24T02:11:03.488Z,59.94
2023-03-24T02:14:19.619Z,59.66
2023-03-24T02:21:01.055Z,60.03
2023-03-24T02:24:12.838Z,59.92
2023-03-24T02:27:22.366Z,59.73
2023-03-24T02:30:52.962Z,60.14
2023-03-24T02:34:28.725Z,59.74
2023-03-24T02:37:56.724Z,59.62
2023-03-24T02:41:29.310Z,59.82
2023-03-24T02:44:13.794Z,59.87
2023-03-24T02:47:25.937Z,59.71
2023-03-24T02:53:17.083Z,60.38
2023-03-24T02:56:30.333Z,60.58
2023-03-24T02:59:28.833Z,60.55
2023-03-24T03:02:10.428Z,59.87
2023-03-24T03:05:07.496Z,60.05
2023-03-24T03:07:57.654Z,60.12
2023-03-24T03:11:01.256Z,59.77
2023-03-24T03:14:09.875Z,59.96
2023-03-24T03:17:20.759Z,59.91
2023-03-24T03:20:22.947Z,59.75
2023-03-24T03:23:14.025Z,60.01
2023-03-24T03:26:18.023Z,60.09
2023-03-24T03:29:30.301Z,59.90
2023-03-24T03:32:41.817Z,59.92
2023-03-24T03:35:24.147Z,59.72
2023-03-24T03:38:20.084Z,59.69
2023-03-24T03:41:34.855Z,59.48
2023-03-24T03:44:04.436Z,59.52
2023-03-24T03:46:48.394Z,59.78
2023-03-24T03:50:04.929Z,59.89
2023-03-24T03:52:41.666Z,59.97
2023-03-24T03:55:21.671Z,59.56
2023-03-24T04:01:08.964Z,59.39
2023-03-24T04:05:05.743Z,59.66
2023-03-24T04:08:29.168Z,59.58
2023-03-24T04:11:48.350Z,59.73
2023-03-24T04:15:39.264Z,59.70
2023-03-24T04:19:16.102Z,59.73
2023-03-24T04:21:59.784Z,60.04
2023-03-24T04:27:46.502Z,60.27
2023-03-24T04:30:59.246Z,60.52
2023-03-24T04:34:29.520Z,61.10
2023-03-24T04:37:49.186Z,61.01
2023-03-24T04:40:43.357Z,61.24
2023-03-24T04:43:35.940Z,61.01
2023-03-24T04:46:10.847Z,61.01
2023-03-24T04:49:14.055Z,61.21
2023-03-24T04:52:06.121Z,61.10
2023-03-24T04:54:49.367Z,61.06
2023-03-24T04:57:32.058Z,61.30
2023-03-24T05:03:33.245Z,61.47
2023-03-24T05:06:19.528Z,61.62
2023-03-24T05:09:05.760Z,61.27
2023-03-24T05:11:38.524Z,61.43
2023-03-24T05:17:42.892Z,61.72
2023-03-24T05:20:30.998Z,61.93
2023-03-24T05:23:24.909Z,61.63
2023-03-24T05:26:07.703Z,61.88
2023-03-24T05:29:46.068Z,61.88
2023-03-24T05:32:35.123Z,62.37
2023-03-24T05:35:16.656Z,61.97
2023-03-24T05:37:56.684Z,62.37
2023-03-24T05:41:06.439Z,62.42
2023-03-24T05:47:45.975Z,62.01
2023-03-24T05:50:16.259Z,62.12
2023-03-24T05:52:51.069Z,62.36
2023-03-24T05:59:51.215Z,62.24
2023-03-24T06:03:26.257Z,62.29
2023-03-24T06:06:21.077Z,62.16
2023-03-24T06:09:14.321Z,62.47
2023-03-24T06:12:15.695Z,62.51
2023-03-24T06:15:31.838Z,62.29
2023-03-24T06:18:37.010Z,62.18
2023-03-24T06:25:05.626Z,62.39
2023-03-24T06:28:19.977Z,62.09
2023-03-24T06:31:02.611Z,62.12
2023-03-24T06:34:25.967Z,62.08
2023-03-24T06:37:25.185Z,62.06
2023-03-24T06:40:15.543Z,62.36
2023-03-24T06:43:20.232Z,61.85
2023-03-24T06:45:56.548Z,61.87
2023-03-24T06:48:44.697Z,62.02
2023-03-24T06:57:28.239Z,61.98
2023-03-24T07:03:43.793Z,62.15
2023-03-24T07:06:24.873Z,61.86
2023-03-24T07:10:22.734Z,61.77
2023-03-24T07:12:59.270Z,61.87
2023-03-24T07:15:54.309Z,61.41
2023-03-24T07:18:26.146Z,61.59
2023-03-24T07:21:29.244Z,61.41
2023-03-24T07:24:58.790Z,61.15
2023-03-24T07:28:12.050Z,61.06
2023-03-24T07:31:23.106Z,61.13
2023-03-24T07:34:05.100Z,60.88
2023-03-24T07:36:53.155Z,60.75
2023-03-24T07:39:43.397Z,60.43
2023-03-24T07:42:27.584Z,60.51
2023-03-24T07:45:48.434Z,60.28
2023-03-24T07:48:51.440Z,60.22
2023-03-24T07:51:38.467Z,60.02
2023-03-24T07:54:47.439Z,60.22
2023-03-24T07:58:20.302Z,60.24
2023-03-24T08:01:20.033Z,60.30
2023-03-24T08:04:06.930Z,60.31
2023-03-24T08:07:07.571Z,60.07
2023-03-24T08:09:43.377Z,60.09
2023-03-24T08:12:20.516Z,60.02
2023-03-24T08:15:15.495Z,59.62
2023-03-24T08:18:05.189Z,59.05
2023-03-24T08:21:01.919Z,58.88
2023-03-24T08:23:37.531Z,59.00
2023-03-24T08:26:44.328Z,58.67
2023-03-24T08:29:45.013Z,58.41
2023-03-24T08:32:23.898Z,58.20
2023-03-24T08:34:57.508Z,58.15
2023-03-24T08:37:51.126Z,58.15
2023-03-24T08:40:33.455Z,57.76
2023-03-24T08:43:17.169Z,58.33
2023-03-24T08:46:13.275Z,58.72
2023-03-24T08:49:09.373Z,58.61
2023-03-24T08:55:03.241Z,58.08
2023-03-24T08:58:10.639Z,57.49
2023-03-24T09:01:06.454Z,57.60
2023-03-24T09:03:40.849Z,57.62
2023-03-24T09:06:19.886Z,57.31
2023-03-24T09:08:54.689Z,57.21
2023-03-24T09:11:26.337Z,57.01
2023-03-24T09:13:56.915Z,56.64
2023-03-24T09:16:29.611Z,56.39
2023-03-24T09:19:02.089Z,56.00
2023-03-24T09:21:33.914Z,56.04
2023-03-24T09:24:10.601Z,56.00
2023-03-24T09:26:52.996Z,56.12
2023-03-24T09:29:24.340Z,56.25
2023-03-24T09:31:57.977Z,55.98
2023-03-24T09:34:39.312Z,55.56
2023-03-24T09:37:08.214Z,55.26
2023-03-24T09:39:38.434Z,55.19
2023-03-24T09:42:30.263Z,54.61
2023-03-24T09:45:16.883Z,53.91
2023-03-24T09:47:49.878Z,53.65
2023-03-24T09:50:26.323Z,53.86
2023-03-24T09:52:55.565Z,54.01
2023-03-24T09:55:38.481Z,53.90
2023-03-24T09:58:20.144Z,53.89
2023-03-24T10:00:50.726Z,53.88
2023-03-24T10:03:25.244Z,54.20
2023-03-24T10:06:04.400Z,54.00
2023-03-24T10:08:38.042Z,53.25
2023-03-24T10:11:54.010Z,52.67
2023-03-24T10:14:44.344Z,52.64
2023-03-24T10:17:30.517Z,52.90
2023-03-24T10:20:03.593Z,52.97
2023-03-24T10:22:56.566Z,52.33
2023-03-24T10:25:33.228Z,51.27
2023-03-24T10:28:05.422Z,51.70
2023-03-24T10:30:45.309Z,52.18
2023-03-24T10:33:17.936Z,51.60
2023-03-24T10:35:59.467Z,51.78
2023-03-24T10:38:31.220Z,51.40
2023-03-24T10:41:02.515Z,51.37
2023-03-24T10:46:48.233Z,51.39
2023-03-24T10:49:17.013Z,51.29
2023-03-24T10:51:49.777Z,51.14
2023-03-24T10:54:19.311Z,51.24
2023-03-24T10:56:52.325Z,50.70
2023-03-24T10:59:27.500Z,50.86
2023-03-24T11:02:15.628Z,51.15
2023-03-24T11:04:46.527Z,51.74
2023-03-24T11:07:17.447Z,51.70
2023-03-24T11:09:45.807Z,51.80
2023-03-24T11:12:27.469Z,51.61
2023-03-24T11:15:21.249Z,51.38
2023-03-24T11:17:57.299Z,50.95
2023-03-24T11:20:34.241Z,50.76
2023-03-24T11:23:05.003Z,50.65
2023-03-24T11:25:36.300Z,50.46
2023-03-24T11:28:09.035Z,50.11
2023-03-24T11:30:47.885Z,50.11
2023-03-24T11:33:34.962Z,50.13
2023-03-24T11:36:07.715Z,50.08
2023-03-24T11:38:37.060Z,49.88
2023-03-24T11:41:05.953Z,49.61
2023-03-24T11:43:34.264Z,50.12
2023-03-24T11:46:05.987Z,49.65
2023-03-24T11:48:41.778Z,49.31
2023-03-24T11:51:12.692Z,49.25
2023-03-24T11:53:43.949Z,48.54
2023-03-24T11:56:16.345Z,48.47
2023-03-24T11:58:46.481Z,47.82
2023-03-24T12:01:30.351Z,48.07
2023-03-24T12:04:09.007Z,49.36
2023-03-24T12:06:47.109Z,49.90
2023-03-24T12:09:22.929Z,49.50
2023-03-24T12:12:00.249Z,49.46
2023-03-24T12:14:43.674Z,49.19
2023-03-24T12:17:13.462Z,47.70
2023-03-24T12:20:14.684Z,47.22
2023-03-24T12:22:49.084Z,47.64
2023-03-24T12:25:26.611Z,47.74
2023-03-24T12:27:59.006Z,48.20
2023-03-24T12:30:30.942Z,48.83
2023-03-24T12:33:20.103Z,48.59
2023-03-24T12:35:52.549Z,48.63
2023-03-24T12:38:44.527Z,49.00
2023-03-24T12:41:26.116Z,49.22
2023-03-24T12:44:04.780Z,48.96
2023-03-24T12:46:47.733Z,48.05
2023-03-24T12:49:25.940Z,47.35
2023-03-24T12:52:00.642Z,47.65
2023-03-24T12:54:33.011Z,48.23
2023-03-24T12:57:02.692Z,47.91
2023-03-24T12:59:33.086Z,47.59
2023-03-24T13:02:05.790Z,48.30
2023-03-24T13:04:37.725Z,47.91
2023-03-24T13:07:11.565Z,48.62
2023-03-24T13:09:46.114Z,47.63
2023-03-24T13:12:15.767Z,47.13
2023-03-24T13:14:53.409Z,47.58
2023-03-24T13:17:25.830Z,47.75
2023-03-24T13:19:53.866Z,47.28
2023-03-24T13:22:23.266Z,47.44
2023-03-24T13:24:51.354Z,47.66
2023-03-24T13:27:22.018Z,47.14
2023-03-24T13:30:07.429Z,46.58
2023-03-24T13:32:38.382Z,46.63
2023-03-24T13:35:10.166Z,46.70
2023-03-24T13:37:41.301Z,47.13
2023-03-24T13:40:12.305Z,46.78
2023-03-24T13:42:49.282Z,47.11
2023-03-24T13:45:25.154Z,45.92
2023-03-24T13:48:03.462Z,46.32
2023-03-24T13:50:34.689Z,47.62
2023-03-24T13:53:08.160Z,47.60
2023-03-24T13:55:37.953Z,47.30
2023-03-24T13:58:10.643Z,47.39
2023-03-24T14:01:06.811Z,47.54
2023-03-24T14:03:35.739Z,46.11
2023-03-24T14:06:05.876Z,45.81
2023-03-24T14:08:43.764Z,46.30
2023-03-24T14:11:45.667Z,46.08
2023-03-24T14:14:21.964Z,45.37
2023-03-24T14:17:07.835Z,44.91
2023-03-24T14:19:39.206Z,45.39
2023-03-24T14:22:12.560Z,46.38
2023-03-24T14:24:42.734Z,46.15
2023-03-24T14:27:38.626Z,46.61
2023-03-24T14:30:14.745Z,47.04
2023-03-24T14:32:46.559Z,47.43
2023-03-24T14:35:42.895Z,47.21
2023-03-24T14:38:22.466Z,47.28
2023-03-24T14:40:53.511Z,47.71
2023-03-24T14:43:24.136Z,46.72
2023-03-24T14:46:00.043Z,46.46
2023-03-24T14:48:38.160Z,46.70
2023-03-24T14:51:16.686Z,46.66
2023-03-24T14:53:46.122Z,46.69
2023-03-24T14:56:19.479Z,47.43
2023-03-24T14:58:48.155Z,47.12
2023-03-24T15:01:17.551Z,47.58
2023-03-24T15:03:50.987Z,47.65
2023-03-24T15:06:23.173Z,47.66
2023-03-24T15:08:52.238Z,46.67
2023-03-24T15:11:23.117Z,46.88
2023-03-24T15:13:52.320Z,46.52
2023-03-24T15:16:22.631Z,46.68
2023-03-24T15:19:00.648Z,46.50
2023-03-24T15:21:34.061Z,46.61
2023-03-24T15:24:02.834Z,46.71
2023-03-24T15:26:32.814Z,45.65
2023-03-24T15:29:04.321Z,44.88
2023-03-24T15:31:32.365Z,44.65
2023-03-24T15:34:25.544Z,44.97
2023-03-24T15:36:55.140Z,44.30
2023-03-24T15:39:27.027Z,45.33
2023-03-24T15:41:56.972Z,44.93
2023-03-24T15:44:27.242Z,44.29
2023-03-24T15:46:56.594Z,43.25
2023-03-24T15:49:27.100Z,43.88
2023-03-24T15:51:58.128Z,43.93
2023-03-24T15:54:26.589Z,43.12
2023-03-24T15:57:04.119Z,43.90
2023-03-24T15:59:38.054Z,44.25
2023-03-24T16:02:07.130Z,44.52
2023-03-24T16:04:35.649Z,44.35
2023-03-24T16:07:04.969Z,44.06
2023-03-24T16:09:38.050Z,44.19
2023-03-24T16:12:11.968Z,43.22
2023-03-24T16:14:42.594Z,43.09
2023-03-24T16:17:12.658Z,43.21
2023-03-24T16:19:40.827Z,42.64
2023-03-24T16:22:11.161Z,43.25
2023-03-24T16:24:39.135Z,43.17
2023-03-24T16:27:07.581Z,43.33
2023-03-24T16:29:37.452Z,44.02
2023-03-24T16:32:06.963Z,44.32
2023-03-24T16:34:36.754Z,44.84
2023-03-24T16:37:05.388Z,45.25
2023-03-24T16:39:33.828Z,45.61
2023-03-24T16:42:01.920Z,46.40
2023-03-24T16:44:29.861Z,46.90
2023-03-24T16:47:00.232Z,47.05
2023-03-24T16:49:28.325Z,47.01
2023-03-24T16:51:56.796Z,46.34
2023-03-24T16:54:25.579Z,46.35
2023-03-24T16:56:53.605Z,46.61
2023-03-24T16:59:23.039Z,46.89
2023-03-24T17:01:51.014Z,47.04
2023-03-24T17:04:22.219Z,46.78
2023-03-24T17:06:52.837Z,46.27
2023-03-24T17:09:21.279Z,45.51
2023-03-24T17:11:50.934Z,45.65
2023-03-24T17:14:18.949Z,45.52
2023-03-24T17:16:49.244Z,46.11
2023-03-24T17:19:21.419Z,46.53
2023-03-24T17:21:50.840Z,47.42
2023-03-24T17:24:18.875Z,47.50
2023-03-24T17:26:47.405Z,47.90
2023-03-24T17:29:15.441Z,48.50
2023-03-24T17:31:45.454Z,48.79
2023-03-24T17:36:49.641Z,49.85
2023-03-24T17:39:18.156Z,49.93
2023-03-24T17:41:46.662Z,50.24
2023-03-24T17:44:14.641Z,50.69
2023-03-24T17:46:42.680Z,50.77
2023-03-24T17:49:11.519Z,51.28
2023-03-24T17:51:40.925Z,51.12
2023-03-24T17:54:11.871Z,51.13
2023-03-24T17:56:39.945Z,51.25
2023-03-24T17:59:08.163Z,51.55
2023-03-24T18:01:39.225Z,51.86
2023-03-24T18:04:08.052Z,52.24
2023-03-24T18:06:38.527Z,52.51
2023-03-24T18:09:09.187Z,52.86
2023-03-24T18:11:38.536Z,53.08
2023-03-24T18:14:09.108Z,52.92
2023-03-24T18:16:39.229Z,53.17
2023-03-24T18:19:07.267Z,52.76
2023-03-24T18:21:35.186Z,52.75
2023-03-24T18:24:04.795Z,52.62
2023-03-24T18:26:33.630Z,53.05
2023-03-24T18:29:03.502Z,52.63
2023-03-24T18:31:32.929Z,52.53
2023-03-24T18:34:01.310Z,52.68
2023-03-24T18:36:29.558Z,52.87
2023-03-24T18:38:58.744Z,53.16
2023-03-24T18:41:28.333Z,53.14
2023-03-24T18:44:00.217Z,53.48
2023-03-24T18:46:31.530Z,53.77
2023-03-24T18:48:59.911Z,53.75
2023-03-24T18:51:29.788Z,53.63
2023-03-24T18:53:57.860Z,53.76
2023-03-24T18:56:28.440Z,53.84
2023-03-24T18:58:56.918Z,53.68
2023-03-24T19:01:24.977Z,53.89
2023-03-24T19:03:54.428Z,53.92
2023-03-24T19:06:26.120Z,54.49
2023-03-24T19:08:55.617Z,54.83
2023-03-24T19:11:24.509Z,55.34
2023-03-24T19:13:52.443Z,55.46
2023-03-24T19:16:21.991Z,55.56
2023-03-24T19:18:50.642Z,55.52
2023-03-24T19:21:23.037Z,55.52
2023-03-24T19:23:52.595Z,55.99
2023-03-24T19:26:23.010Z,55.49
2023-03-24T19:28:52.659Z,55.79
2023-03-24T19:31:22.380Z,55.94
2023-03-24T19:33:52.328Z,55.73
2023-03-24T19:36:25.486Z,55.60
2023-03-24T19:38:53.550Z,55.58
2023-03-24T19:41:24.074Z,55.78
2023-03-24T19:43:52.039Z,55.57
2023-03-24T19:46:21.614Z,55.34
2023-03-24T19:48:49.578Z,55.43
2023-03-24T19:51:18.544Z,55.63
2023-03-24T19:53:48.016Z,55.12
2023-03-24T19:56:17.988Z,55.13
2023-03-24T19:58:46.006Z,55.06
2023-03-24T20:01:14.158Z,54.82
2023-03-24T20:03:42.498Z,55.38
2023-03-24T20:06:12.576Z,55.26
2023-03-24T20:08:41.367Z,55.61
2023-03-24T20:11:12.062Z,56.05
2023-03-24T20:13:40.093Z,56.18
2023-03-24T20:16:08.580Z,56.07
2023-03-24T20:18:36.672Z,56.58
2023-03-24T20:21:06.335Z,56.42
2023-03-24T20:23:36.439Z,56.40
2023-03-24T20:26:04.646Z,56.21
2023-03-24T20:28:35.417Z,56.45
2023-03-24T20:31:03.759Z,56.25
2023-03-24T20:33:32.205Z,55.96
2023-03-24T20:36:02.316Z,56.45
2023-03-24T20:38:34.019Z,56.15
2023-03-24T20:41:03.033Z,56.24
2023-03-24T20:43:35.554Z,55.90
2023-03-24T20:46:10.750Z,56.37
2023-03-24T20:48:38.896Z,56.04
2023-03-24T20:51:07.401Z,55.96
2023-03-24T20:53:36.006Z,56.01
2023-03-24T20:56:06.606Z,55.75
2023-03-24T20:58:34.672Z,55.87
2023-03-24T21:01:08.086Z,55.73
2023-03-24T21:03:52.660Z,55.62
2023-03-24T21:06:21.185Z,55.14
2023-03-24T21:08:49.115Z,55.68
2023-03-24T21:11:19.072Z,55.66
2023-03-24T21:13:50.540Z,55.51
2023-03-24T21:16:20.570Z,55.38
2023-03-24T21:18:48.556Z,55.76
2023-03-24T21:21:16.847Z,55.82
2023-03-24T21:23:44.838Z,55.48
2023-03-24T21:26:13.726Z,55.22
2023-03-24T21:28:41.678Z,55.67
2023-03-24T21:31:10.774Z,55.83
2023-03-24T21:33:43.387Z,55.68
2023-03-24T21:36:13.231Z,55.94
2023-03-24T21:38:42.879Z,55.59
2023-03-24T21:41:11.160Z,55.75
2023-03-24T21:43:43.406Z,55.50
2023-03-24T21:46:20.390Z,56.25
2023-03-24T21:48:52.139Z,55.93
2023-03-24T21:51:21.110Z,55.74
2023-03-24T21:53:49.747Z,55.75
2023-03-24T21:56:20.234Z,55.71
2023-03-24T21:58:48.548Z,55.38
2023-03-24T22:01:16.775Z,55.49
2023-03-24T22:03:46.450Z,55.54
2023-03-24T22:06:15.983Z,55.63
2023-03-24T22:08:48.828Z,55.63
2023-03-24T22:11:18.817Z,55.07
2023-03-24T22:13:48.298Z,53.83
2023-03-24T22:16:16.227Z,53.20
2023-03-24T22:18:49.705Z,53.20
2023-03-24T22:21:20.316Z,53.43
2023-03-24T22:23:48.626Z,53.56
2023-03-24T22:26:17.125Z,53.54
2023-03-24T22:28:45.467Z,54.09
2023-03-24T22:31:14.687Z,53.80
2023-03-24T22:33:44.240Z,53.55
2023-03-24T22:36:12.830Z,53.72
2023-03-24T22:38:43.715Z,53.89
2023-03-24T22:41:12.878Z,53.53
2023-03-24T22:43:41.628Z,53.88
2023-03-24T22:46:09.724Z,53.73
2023-03-24T22:48:39.132Z,53.57
2023-03-24T22:51:08.803Z,53.66
2023-03-24T22:53:38.032Z,54.18
2023-03-24T22:56:09.156Z,54.17
2023-03-24T22:58:40.109Z,54.42
2023-03-24T23:01:08.638Z,54.56
2023-03-24T23:03:39.297Z,54.64
2023-03-24T23:06:10.136Z,54.52
2023-03-24T23:08:40.235Z,54.85
2023-03-24T23:11:10.071Z,55.25
2023-03-24T23:13:38.959Z,55.17
2023-03-24T23:16:07.617Z,55.55
2023-03-24T23:18:36.148Z,55.64
2023-03-24T23:21:07.095Z,55.76
2023-03-24T23:23:35.658Z,56.12
2023-03-24T23:26:06.065Z,55.64
2023-03-24T23:28:35.979Z,55.78
2023-03-24T23:31:05.459Z,56.24
2023-03-24T23:33:34.534Z,56.28
2023-03-24T23:36:03.058Z,56.36
2023-03-24T23:38:31.547Z,56.58
2023-03-24T23:41:01.193Z,56.39
2023-03-24T23:43:29.358Z,56.33
2023-03-24T23:45:58.665Z,56.47
2023-03-24T23:48:27.653Z,56.25
2023-03-24T23:50:58.601Z,56.42
2023-03-24T23:53:26.876Z,56.24
2023-03-24T23:56:01.047Z,56.34
2023-03-24T23:58:30.415Z,56.31
